Terminal Aerodrome Forecast
Issued by NWS Corpus Christi, TX

Home | Current Version | Previous Version | Text Only | Print | Product List | Glossary On
Versions: 1 2 3 4 5 6 7 8 9 10 11 12 13
000
FTUS44 KCRP 191731
TAFCRP
TAF
KCRP 191731Z 1918/2018 16009KT P6SM SCT040
     FM191900 12015G21KT P6SM FEW050
     FM200300 15010KT P6SM FEW020
     FM200900 16005KT P6SM SCT018
      TEMPO 2009/2013 BKN018
     FM201400 18010KT P6SM SCT028=

USA.gov is the U.S. government's official web portal to all federal, state and local government web resources and services.